createdAt,value
2018-08-11T00:01:02.177Z,14.50
2018-08-11T00:03:30.821Z,14.40
2018-08-11T00:05:59.371Z,14.40
2018-08-11T00:08:27.967Z,14.40
2018-08-11T00:10:56.529Z,14.40
2018-08-11T00:13:25.209Z,14.40
2018-08-11T00:15:53.760Z,14.30
2018-08-11T00:18:22.346Z,14.20
2018-08-11T00:20:51.576Z,14.20
2018-08-11T00:23:20.132Z,14.10
2018-08-11T00:25:48.684Z,14.10
2018-08-11T00:28:17.236Z,14.10
2018-08-11T00:30:45.864Z,13.90
2018-08-11T00:33:14.396Z,13.80
2018-08-11T00:35:42.976Z,13.70
2018-08-11T00:38:11.553Z,13.70
2018-08-11T00:40:40.721Z,13.60
2018-08-11T00:43:09.326Z,13.70
2018-08-11T00:45:37.912Z,13.70
2018-08-11T00:48:06.493Z,13.70
2018-08-11T00:50:35.540Z,13.80
2018-08-11T00:53:04.960Z,13.70
2018-08-11T00:55:33.578Z,13.70
2018-08-11T00:58:02.176Z,13.70
2018-08-11T01:00:30.785Z,13.70
2018-08-11T01:02:59.345Z,13.80
2018-08-11T01:05:27.929Z,13.90
2018-08-11T01:07:56.552Z,13.80
2018-08-11T01:10:25.180Z,13.90
2018-08-11T01:12:53.764Z,13.90
2018-08-11T01:15:23.121Z,14.00
2018-08-11T01:17:52.393Z,13.90
2018-08-11T01:20:21.012Z,14.00
2018-08-11T01:22:50.284Z,14.00
2018-08-11T01:25:18.878Z,14.10
2018-08-11T01:27:47.469Z,14.00
2018-08-11T01:30:17.809Z,13.90
2018-08-11T01:32:46.388Z,13.80
2018-08-11T01:35:15.026Z,13.90
2018-08-11T01:37:44.451Z,13.80
2018-08-11T01:40:14.417Z,13.70
2018-08-11T01:42:44.189Z,13.80
2018-08-11T01:45:13.516Z,13.80
2018-08-11T01:47:42.485Z,13.80
2018-08-11T01:50:12.533Z,13.70
2018-08-11T01:52:44.260Z,13.60
2018-08-11T01:55:14.529Z,13.70
2018-08-11T01:57:43.641Z,13.70
2018-08-11T02:00:13.721Z,13.70
2018-08-11T02:02:42.384Z,13.80
2018-08-11T02:05:12.033Z,13.90
2018-08-11T02:07:41.709Z,13.90
2018-08-11T02:10:12.056Z,13.90
2018-08-11T02:12:40.627Z,14.00
2018-08-11T02:15:11.792Z,13.90
2018-08-11T02:17:40.339Z,14.00
2018-08-11T02:20:12.332Z,14.00
2018-08-11T02:22:41.768Z,13.90
2018-08-11T02:25:10.732Z,14.00
2018-08-11T02:27:39.805Z,14.00
2018-08-11T02:30:10.617Z,14.10
2018-08-11T02:32:39.332Z,13.90
2018-08-11T02:35:08.776Z,14.00
2018-08-11T02:37:37.312Z,14.10
2018-08-11T02:40:07.370Z,14.10
2018-08-11T02:42:36.118Z,14.10
2018-08-11T02:45:05.434Z,14.10
2018-08-11T02:47:34.127Z,14.10
2018-08-11T02:50:02.691Z,14.10
2018-08-11T02:52:31.195Z,14.10
2018-08-11T02:54:59.749Z,14.10
2018-08-11T02:57:28.457Z,14.10
2018-08-11T02:59:56.989Z,14.00
2018-08-11T03:02:25.517Z,14.00
2018-08-11T03:04:54.026Z,14.00
2018-08-11T03:07:22.538Z,13.90
2018-08-11T03:09:51.070Z,13.90
2018-08-11T03:12:19.570Z,13.90
2018-08-11T03:14:48.104Z,13.90
2018-08-11T03:17:16.597Z,13.90
2018-08-11T03:19:45.124Z,13.90
2018-08-11T03:22:13.640Z,13.80
2018-08-11T03:24:42.169Z,13.80
2018-08-11T03:27:10.666Z,13.80
2018-08-11T03:29:39.180Z,13.80
2018-08-11T03:32:07.714Z,13.70
2018-08-11T03:34:36.203Z,13.60
2018-08-11T03:37:04.891Z,13.60
2018-08-11T03:39:33.401Z,13.60
2018-08-11T03:42:01.928Z,13.60
2018-08-11T03:44:37.132Z,13.60
2018-08-11T03:47:05.658Z,13.60
2018-08-11T03:49:34.161Z,13.60
2018-08-11T03:52:02.697Z,13.50
2018-08-11T03:54:31.257Z,13.30
2018-08-11T03:56:59.797Z,13.40
2018-08-11T03:59:28.305Z,13.40
2018-08-11T04:01:56.840Z,13.40
2018-08-11T04:04:25.353Z,13.40
2018-08-11T04:06:53.921Z,13.40
2018-08-11T04:09:22.449Z,13.30
2018-08-11T04:11:51.018Z,13.30
2018-08-11T04:14:19.530Z,13.30
2018-08-11T04:16:48.077Z,13.40
2018-08-11T04:19:16.592Z,13.40
2018-08-11T04:21:45.256Z,13.50
2018-08-11T04:24:13.797Z,13.50
2018-08-11T04:26:42.341Z,13.50
2018-08-11T04:29:10.986Z,13.50
2018-08-11T04:31:39.561Z,13.50
2018-08-11T04:34:08.142Z,13.60
2018-08-11T04:36:36.668Z,13.60
2018-08-11T04:39:07.764Z,13.70
2018-08-11T04:41:36.607Z,13.60
2018-08-11T04:44:05.139Z,13.70
2018-08-11T04:46:33.657Z,13.70
2018-08-11T04:49:02.179Z,13.80
2018-08-11T04:51:30.714Z,13.70
2018-08-11T04:53:59.247Z,13.70
2018-08-11T04:56:27.764Z,13.80
2018-08-11T04:58:56.273Z,13.80
2018-08-11T05:01:24.797Z,13.80
2018-08-11T05:03:53.301Z,13.80
2018-08-11T05:06:21.814Z,13.90
2018-08-11T05:08:50.302Z,13.70
2018-08-11T05:11:18.820Z,13.80
2018-08-11T05:13:47.305Z,13.90
2018-08-11T05:16:15.839Z,14.10
2018-08-11T05:18:44.344Z,14.30
2018-08-11T05:21:12.879Z,14.20
2018-08-11T05:23:41.393Z,14.30
2018-08-11T05:26:09.950Z,14.30
2018-08-11T05:28:38.453Z,14.40
2018-08-11T05:31:06.970Z,14.40
2018-08-11T05:33:35.484Z,14.40
2018-08-11T05:36:04.049Z,14.50
2018-08-11T05:38:32.544Z,14.50
2018-08-11T05:41:01.070Z,14.40
2018-08-11T05:43:29.564Z,14.50
2018-08-11T05:45:58.094Z,14.50
2018-08-11T05:48:26.625Z,14.60
2018-08-11T05:50:55.168Z,14.70
2018-08-11T05:53:23.698Z,14.90
2018-08-11T05:55:52.281Z,15.00
2018-08-11T05:58:20.833Z,15.20
2018-08-11T06:00:49.418Z,15.20
2018-08-11T06:03:18.182Z,15.20
2018-08-11T06:05:46.702Z,15.20
2018-08-11T06:08:15.253Z,15.40
2018-08-11T06:10:43.777Z,15.50
2018-08-11T06:13:12.304Z,15.60
2018-08-11T06:15:40.933Z,15.50
2018-08-11T06:18:09.521Z,15.70
2018-08-11T06:20:38.542Z,15.80
2018-08-11T06:23:07.122Z,15.90
2018-08-11T06:25:35.660Z,16.10
2018-08-11T06:28:04.245Z,16.40
2018-08-11T06:30:32.792Z,16.50
2018-08-11T06:33:01.369Z,16.70
2018-08-11T06:35:29.913Z,16.80
2018-08-11T06:37:58.485Z,17.00
2018-08-11T06:40:27.125Z,17.10
2018-08-11T06:42:55.636Z,17.30
2018-08-11T06:45:24.177Z,17.40
2018-08-11T06:47:52.746Z,17.60
2018-08-11T06:50:21.512Z,17.60
2018-08-11T06:52:50.077Z,17.70
2018-08-11T06:55:18.632Z,17.90
2018-08-11T06:57:47.201Z,18.20
2018-08-11T07:00:15.727Z,18.10
2018-08-11T07:02:44.269Z,17.90
2018-08-11T07:05:12.802Z,17.90
2018-08-11T07:07:41.362Z,17.90
2018-08-11T07:10:09.932Z,18.10
2018-08-11T07:12:38.462Z,18.10
2018-08-11T07:15:07.283Z,18.20
2018-08-11T07:17:35.874Z,18.60
2018-08-11T07:20:04.489Z,19.10
2018-08-11T07:22:33.030Z,19.30
2018-08-11T07:25:01.599Z,19.40
2018-08-11T07:27:30.148Z,19.50
2018-08-11T07:29:58.686Z,19.30
2018-08-11T07:32:27.225Z,19.70
2018-08-11T07:34:55.752Z,20.10
2018-08-11T07:37:24.479Z,20.40
2018-08-11T07:39:53.051Z,20.70
2018-08-11T07:42:21.626Z,20.70
2018-08-11T07:44:50.140Z,20.70
2018-08-11T07:47:18.730Z,20.90
2018-08-11T07:49:47.248Z,21.00
2018-08-11T07:52:15.797Z,21.30
2018-08-11T07:54:44.332Z,21.20
2018-08-11T07:57:12.978Z,21.40
2018-08-11T07:59:41.496Z,21.20
2018-08-11T08:02:10.108Z,20.90
2018-08-11T08:04:38.604Z,20.50
2018-08-11T08:07:07.265Z,20.50
2018-08-11T08:09:35.768Z,20.50
2018-08-11T08:12:04.361Z,20.40
2018-08-11T08:14:32.893Z,20.40
2018-08-11T08:17:01.452Z,20.50
2018-08-11T08:19:29.991Z,20.50
2018-08-11T08:21:58.532Z,20.70
2018-08-11T08:24:27.800Z,20.90
2018-08-11T08:26:56.325Z,21.00
2018-08-11T08:29:24.858Z,21.00
2018-08-11T08:31:53.346Z,20.90
2018-08-11T08:34:21.898Z,20.80
2018-08-11T08:36:50.405Z,20.50
2018-08-11T08:39:18.935Z,20.50
2018-08-11T08:41:47.470Z,20.60
2018-08-11T08:44:16.017Z,20.60
2018-08-11T08:46:44.524Z,20.60
2018-08-11T08:49:13.084Z,20.60
2018-08-11T08:51:41.577Z,20.50
2018-08-11T08:54:10.152Z,20.70
2018-08-11T08:56:38.669Z,20.90
2018-08-11T08:59:07.298Z,21.10
2018-08-11T09:01:35.776Z,21.20
2018-08-11T09:04:04.804Z,21.50
2018-08-11T09:06:33.317Z,21.80
2018-08-11T09:09:01.873Z,21.80
2018-08-11T09:11:30.405Z,21.70
2018-08-11T09:13:58.950Z,21.50
2018-08-11T09:16:27.720Z,21.40
2018-08-11T09:18:56.280Z,21.50
2018-08-11T09:21:24.809Z,21.50
2018-08-11T09:23:53.353Z,21.50
2018-08-11T09:26:21.866Z,21.50
2018-08-11T09:28:50.429Z,21.40
2018-08-11T09:31:18.945Z,21.40
2018-08-11T09:33:47.611Z,21.60
2018-08-11T09:36:16.125Z,21.70
2018-08-11T09:38:44.682Z,21.40
2018-08-11T09:41:13.192Z,21.40
2018-08-11T09:43:41.753Z,21.60
2018-08-11T09:46:10.285Z,21.80
2018-08-11T09:48:38.838Z,22.20
2018-08-11T09:51:07.590Z,22.50
2018-08-11T09:53:36.125Z,22.30
2018-08-11T09:56:04.682Z,22.30
2018-08-11T09:58:33.223Z,22.60
2018-08-11T10:01:07.149Z,22.70
2018-08-11T10:03:35.684Z,22.90
2018-08-11T10:06:04.201Z,22.90
2018-08-11T10:08:32.828Z,22.80
2018-08-11T10:11:01.319Z,22.50
2018-08-11T10:13:29.857Z,22.40
2018-08-11T10:15:58.382Z,22.30
2018-08-11T10:18:26.929Z,22.00
2018-08-11T10:20:55.430Z,22.20
2018-08-11T10:23:23.953Z,22.20
2018-08-11T10:25:52.484Z,22.20
2018-08-11T10:28:21.014Z,22.20
2018-08-11T10:30:49.533Z,22.20
2018-08-11T10:33:18.050Z,22.20
2018-08-11T10:35:46.562Z,22.30
2018-08-11T10:38:15.096Z,22.50
2018-08-11T10:40:43.585Z,22.80
2018-08-11T10:43:12.107Z,23.10
2018-08-11T10:45:40.605Z,23.20
2018-08-11T10:48:09.133Z,23.10
2018-08-11T10:50:37.629Z,23.20
2018-08-11T10:53:06.481Z,23.30
2018-08-11T10:55:35.043Z,23.30
2018-08-11T10:58:03.601Z,23.40
2018-08-11T11:00:32.142Z,23.60
2018-08-11T11:03:00.671Z,23.70
2018-08-11T11:05:29.247Z,23.30
2018-08-11T11:07:57.754Z,23.00
2018-08-11T11:10:26.305Z,22.70
2018-08-11T11:12:54.817Z,22.20
2018-08-11T11:15:23.387Z,22.00
2018-08-11T11:17:51.913Z,21.90
2018-08-11T11:20:20.461Z,21.80
2018-08-11T11:22:48.964Z,21.70
2018-08-11T11:25:17.549Z,21.90
2018-08-11T11:27:46.082Z,22.00
2018-08-11T11:30:14.644Z,22.20
2018-08-11T11:32:43.196Z,22.50
2018-08-11T11:35:11.740Z,22.70
2018-08-11T11:37:40.294Z,22.70
2018-08-11T11:40:08.841Z,22.80
2018-08-11T11:42:37.365Z,22.90
2018-08-11T11:45:06.077Z,23.00
2018-08-11T11:47:34.585Z,22.90
2018-08-11T11:50:03.162Z,23.00
2018-08-11T11:52:31.695Z,23.10
2018-08-11T11:55:00.282Z,23.40
2018-08-11T11:57:28.788Z,23.50
2018-08-11T11:59:57.431Z,23.30
2018-08-11T12:02:25.917Z,23.10
2018-08-11T12:04:54.473Z,22.90
2018-08-11T12:07:22.984Z,22.60
2018-08-11T12:09:51.544Z,22.50
2018-08-11T12:12:20.073Z,22.40
2018-08-11T12:14:48.647Z,22.30
2018-08-11T12:17:17.168Z,22.20
2018-08-11T12:19:45.769Z,22.20
2018-08-11T12:22:14.285Z,22.30
2018-08-11T12:24:42.852Z,22.30
2018-08-11T12:27:11.384Z,22.40
2018-08-11T12:29:39.987Z,22.40
2018-08-11T12:32:09.380Z,22.40
2018-08-11T12:34:37.950Z,22.50
2018-08-11T12:37:06.512Z,22.50
2018-08-11T12:39:35.085Z,22.70
2018-08-11T12:42:03.632Z,23.00
2018-08-11T12:44:32.177Z,23.20
2018-08-11T12:47:00.817Z,23.40
2018-08-11T12:49:29.437Z,23.40
2018-08-11T12:51:58.217Z,23.50
2018-08-11T12:54:26.818Z,23.80
2018-08-11T12:56:55.339Z,23.80
2018-08-11T12:59:23.882Z,24.00
2018-08-11T13:01:52.400Z,23.90
2018-08-11T13:04:20.942Z,24.00
2018-08-11T13:06:49.547Z,24.20
2018-08-11T13:09:18.145Z,24.40
2018-08-11T13:11:46.697Z,24.50
2018-08-11T13:14:15.236Z,24.60
2018-08-11T13:16:43.762Z,24.80
2018-08-11T13:19:12.282Z,24.80
2018-08-11T13:21:40.857Z,24.90
2018-08-11T13:24:09.372Z,24.60
2018-08-11T13:26:37.953Z,24.40
2018-08-11T13:29:06.525Z,24.20
2018-08-11T13:31:35.078Z,24.10
2018-08-11T13:34:03.645Z,24.10
2018-08-11T13:36:32.212Z,23.80
2018-08-11T13:39:00.796Z,23.80
2018-08-11T13:41:38.560Z,23.90
2018-08-11T13:44:07.154Z,23.90
2018-08-11T13:46:35.696Z,24.00
2018-08-11T13:49:04.289Z,23.70
2018-08-11T13:51:32.811Z,23.30
2018-08-11T13:54:01.361Z,23.00
2018-08-11T13:56:29.937Z,23.10
2018-08-11T13:58:58.514Z,23.30
2018-08-11T14:01:27.064Z,23.50
2018-08-11T14:03:55.940Z,23.50
2018-08-11T14:06:24.584Z,23.60
2018-08-11T14:08:53.127Z,23.60
2018-08-11T14:11:21.655Z,23.80
2018-08-11T14:13:50.181Z,23.80
2018-08-11T14:16:18.767Z,23.70
2018-08-11T14:18:47.257Z,23.70
2018-08-11T14:21:15.836Z,23.80
2018-08-11T14:23:44.364Z,23.90
2018-08-11T14:26:12.893Z,23.90
2018-08-11T14:28:41.386Z,23.70
2018-08-11T14:31:09.917Z,23.70
2018-08-11T14:33:38.429Z,23.60
2018-08-11T14:36:07.035Z,23.60
2018-08-11T14:38:35.602Z,23.70
2018-08-11T14:41:04.189Z,23.60
2018-08-11T14:43:32.690Z,23.70
2018-08-11T14:46:01.276Z,23.80
2018-08-11T14:48:30.046Z,23.90
2018-08-11T14:50:58.585Z,23.90
2018-08-11T14:53:27.104Z,23.80
2018-08-11T14:55:55.672Z,23.80
2018-08-11T14:58:24.181Z,23.80
2018-08-11T15:00:52.763Z,23.90
2018-08-11T15:03:21.273Z,23.90
2018-08-11T15:05:49.812Z,23.80
2018-08-11T15:08:21.437Z,23.70
2018-08-11T15:10:50.013Z,23.80
2018-08-11T15:13:18.521Z,23.80
2018-08-11T15:15:47.144Z,23.80
2018-08-11T15:18:15.656Z,23.70
2018-08-11T15:20:44.194Z,23.50
2018-08-11T15:23:12.729Z,23.50
2018-08-11T15:25:41.261Z,23.60
2018-08-11T15:28:09.997Z,23.70
2018-08-11T15:30:38.527Z,23.80
2018-08-11T15:33:07.048Z,24.00
2018-08-11T15:35:35.587Z,24.10
2018-08-11T15:38:04.112Z,24.00
2018-08-11T15:40:32.644Z,24.00
2018-08-11T15:43:01.158Z,24.00
2018-08-11T15:45:29.718Z,24.00
2018-08-11T15:47:58.242Z,24.10
2018-08-11T15:50:26.760Z,24.10
2018-08-11T15:52:55.249Z,24.00
2018-08-11T15:55:23.800Z,24.00
2018-08-11T15:57:52.313Z,23.90
2018-08-11T16:00:20.825Z,23.80
2018-08-11T16:02:49.362Z,23.80
2018-08-11T16:05:17.884Z,23.80
2018-08-11T16:07:46.405Z,23.70
2018-08-11T16:10:14.903Z,23.70
2018-08-11T16:12:43.452Z,23.60
2018-08-11T16:15:12.014Z,23.60
2018-08-11T16:17:40.570Z,23.70
2018-08-11T16:20:09.066Z,23.60
2018-08-11T16:22:37.598Z,23.60
2018-08-11T16:25:06.144Z,23.60
2018-08-11T16:27:34.685Z,23.80
2018-08-11T16:30:03.382Z,23.60
2018-08-11T16:32:31.922Z,23.60
2018-08-11T16:35:00.433Z,23.60
2018-08-11T16:37:28.950Z,23.50
2018-08-11T16:39:58.282Z,23.50
2018-08-11T16:42:26.839Z,23.30
2018-08-11T16:44:55.329Z,23.30
2018-08-11T16:47:23.852Z,23.30
2018-08-11T16:49:52.352Z,23.20
2018-08-11T16:52:20.880Z,23.10
2018-08-11T16:54:49.446Z,23.10
2018-08-11T16:57:17.972Z,23.00
2018-08-11T16:59:46.477Z,23.10
2018-08-11T17:02:15.050Z,23.00
2018-08-11T17:04:43.569Z,23.00
2018-08-11T17:07:12.093Z,23.00
2018-08-11T17:09:40.831Z,22.90
2018-08-11T17:12:09.379Z,22.90
2018-08-11T17:14:37.907Z,22.90
2018-08-11T17:17:06.665Z,22.70
2018-08-11T17:19:35.171Z,22.70
2018-08-11T17:22:03.722Z,22.60
2018-08-11T17:24:32.232Z,22.60
2018-08-11T17:27:00.764Z,22.60
2018-08-11T17:29:29.256Z,22.50
2018-08-11T17:31:57.782Z,22.60
2018-08-11T17:34:26.296Z,22.60
2018-08-11T17:36:54.821Z,22.50
2018-08-11T17:39:23.339Z,22.40
2018-08-11T17:41:51.944Z,22.30
2018-08-11T17:44:20.973Z,22.30
2018-08-11T17:46:49.509Z,22.30
2018-08-11T17:49:18.030Z,22.30
2018-08-11T17:51:46.558Z,22.10
2018-08-11T17:54:15.084Z,22.10
2018-08-11T17:56:43.607Z,22.00
2018-08-11T17:59:12.134Z,22.00
2018-08-11T18:01:40.646Z,22.00
2018-08-11T18:04:09.191Z,21.90
2018-08-11T18:06:37.707Z,21.90
2018-08-11T18:09:09.137Z,21.80
2018-08-11T18:11:37.633Z,21.80
2018-08-11T18:14:06.221Z,21.80
2018-08-11T18:16:34.741Z,21.70
2018-08-11T18:19:03.307Z,21.70
2018-08-11T18:21:31.805Z,21.60
2018-08-11T18:24:01.416Z,21.60
2018-08-11T18:26:29.920Z,21.50
2018-08-11T18:28:58.512Z,21.50
2018-08-11T18:31:27.100Z,21.40
2018-08-11T18:33:55.651Z,21.30
2018-08-11T18:36:24.186Z,21.30
2018-08-11T18:38:52.740Z,21.20
2018-08-11T18:41:21.257Z,21.20
2018-08-11T18:43:49.782Z,21.10
2018-08-11T18:46:18.306Z,20.90
2018-08-11T18:48:46.842Z,20.90
2018-08-11T18:51:15.348Z,20.60
2018-08-11T18:53:43.872Z,20.50
2018-08-11T18:56:13.310Z,20.50
2018-08-11T18:58:41.849Z,20.30
2018-08-11T19:01:10.442Z,20.10
2018-08-11T19:03:39.051Z,20.00
2018-08-11T19:06:07.994Z,19.80
2018-08-11T19:08:36.537Z,19.70
2018-08-11T19:11:05.182Z,19.70
2018-08-11T19:13:33.704Z,19.50
2018-08-11T19:16:02.265Z,19.40
2018-08-11T19:18:30.915Z,19.30
2018-08-11T19:20:59.485Z,19.30
2018-08-11T19:23:28.046Z,19.20
2018-08-11T19:25:56.670Z,19.10
2018-08-11T19:28:25.173Z,19.00
2018-08-11T19:30:53.717Z,18.90
2018-08-11T19:33:22.244Z,18.80
2018-08-11T19:35:50.801Z,18.80
2018-08-11T19:38:19.349Z,18.80
2018-08-11T19:40:47.974Z,18.60
2018-08-11T19:43:16.507Z,18.50
2018-08-11T19:45:45.082Z,18.40
2018-08-11T19:48:13.603Z,18.10
2018-08-11T19:50:42.204Z,18.10
2018-08-11T19:53:10.791Z,18.10
2018-08-11T19:55:39.420Z,18.10
2018-08-11T19:58:07.974Z,17.90
2018-08-11T20:00:36.532Z,17.80
2018-08-11T20:03:05.093Z,17.70
2018-08-11T20:05:33.697Z,17.70
2018-08-11T20:08:02.245Z,17.70
2018-08-11T20:10:30.817Z,17.60
2018-08-11T20:12:59.338Z,17.60
2018-08-11T20:15:27.881Z,17.50
2018-08-11T20:17:56.413Z,17.50
2018-08-11T20:20:24.981Z,17.30
2018-08-11T20:22:53.527Z,17.20
2018-08-11T20:25:22.284Z,17.20
2018-08-11T20:27:50.733Z,17.20
2018-08-11T20:30:19.305Z,17.10
2018-08-11T20:32:47.845Z,16.90
2018-08-11T20:35:16.449Z,16.90
2018-08-11T20:37:45.050Z,16.70
2018-08-11T20:40:13.646Z,16.60
2018-08-11T20:42:42.249Z,16.40
2018-08-11T20:45:10.970Z,16.30
2018-08-11T20:47:39.589Z,16.30
2018-08-11T20:50:08.942Z,16.30
2018-08-11T20:52:38.151Z,16.30
2018-08-11T20:55:07.852Z,16.30
2018-08-11T20:57:37.034Z,16.30
2018-08-11T21:00:08.437Z,16.30
2018-08-11T21:02:37.033Z,16.10
2018-08-11T21:05:07.773Z,16.10
2018-08-11T21:07:36.748Z,16.10
2018-08-11T21:10:07.269Z,16.10
2018-08-11T21:12:35.873Z,16.10
2018-08-11T21:15:05.064Z,16.10
2018-08-11T21:17:33.584Z,16.00
2018-08-11T21:20:02.153Z,15.90
2018-08-11T21:22:30.668Z,15.90
2018-08-11T21:24:59.213Z,15.90
2018-08-11T21:27:27.868Z,15.80
2018-08-11T21:29:56.389Z,15.70
2018-08-11T21:32:24.922Z,15.60
2018-08-11T21:34:53.422Z,15.60
2018-08-11T21:37:21.993Z,15.60
2018-08-11T21:39:50.526Z,15.60
2018-08-11T21:42:19.277Z,15.60
2018-08-11T21:44:47.830Z,15.40
2018-08-11T21:47:16.370Z,15.30
2018-08-11T21:49:44.926Z,15.20
2018-08-11T21:52:13.489Z,15.20
2018-08-11T21:54:42.054Z,15.20
2018-08-11T21:57:10.580Z,15.10
2018-08-11T21:59:39.128Z,14.90
2018-08-11T22:02:07.730Z,15.00
2018-08-11T22:04:36.402Z,15.10
2018-08-11T22:07:06.955Z,15.10
2018-08-11T22:09:35.530Z,15.00
2018-08-11T22:12:04.737Z,15.00
2018-08-11T22:14:33.317Z,14.90
2018-08-11T22:17:02.133Z,14.80
2018-08-11T22:19:30.712Z,14.80
2018-08-11T22:21:59.322Z,14.80
2018-08-11T22:24:27.833Z,14.70
2018-08-11T22:26:56.348Z,14.70
2018-08-11T22:29:24.885Z,14.70
2018-08-11T22:31:53.453Z,14.70
2018-08-11T22:34:21.973Z,14.60
2018-08-11T22:36:50.497Z,14.60
2018-08-11T22:39:19.030Z,14.60
2018-08-11T22:41:47.605Z,14.60
2018-08-11T22:44:16.122Z,14.50
2018-08-11T22:46:44.656Z,14.40
2018-08-11T22:49:13.173Z,14.40
2018-08-11T22:51:41.727Z,14.30
2018-08-11T22:54:10.327Z,14.20
2018-08-11T22:56:38.893Z,14.10
2018-08-11T22:59:07.412Z,14.10
2018-08-11T23:01:35.969Z,14.10
2018-08-11T23:04:04.548Z,14.10
2018-08-11T23:06:33.090Z,14.00
2018-08-11T23:09:01.615Z,14.10
2018-08-11T23:11:30.256Z,14.10
2018-08-11T23:13:58.740Z,14.10
2018-08-11T23:16:27.297Z,14.00
2018-08-11T23:18:55.862Z,14.00
2018-08-11T23:21:24.402Z,13.90
2018-08-11T23:23:52.957Z,13.80
2018-08-11T23:26:21.497Z,13.90
2018-08-11T23:28:50.037Z,13.80
2018-08-11T23:31:18.662Z,13.80
2018-08-11T23:33:47.275Z,13.80
2018-08-11T23:36:15.855Z,13.80
2018-08-11T23:38:44.408Z,13.70
2018-08-11T23:41:12.903Z,13.40
2018-08-11T23:43:41.434Z,13.40
2018-08-11T23:46:09.929Z,13.60
2018-08-11T23:48:38.460Z,13.60
2018-08-11T23:51:07.035Z,13.60
2018-08-11T23:53:35.637Z,13.60
2018-08-11T23:56:04.195Z,13.60
2018-08-11T23:58:32.913Z,13.60
